This is the latest recevied weather packets stored in our database for station/object XE2MEM-21. If no packets are shown the sender has not sent any weather packets the latest 10 day(s).
| Time | Temp. | Humidity | Pressure | Rain* | Wind** | Luminosity | Snow |
|---|---|---|---|---|---|---|---|
| 1777867042 | 23.89° C | 89% | 1014.9 hPa | - | - | - | - |
| 1777866142 | 24.44° C | 86% | 1014.8 hPa | - | - | - | - |
| 1777865241 | 24.44° C | 86% | 1014.6 hPa | - | - | - | - |
| 1777864341 | 24.44° C | 83% | 1014.6 hPa | - | - | - | - |
| 1777863441 | 24.44° C | 82% | 1014.5 hPa | - | - | - | - |
| 1777862550 | 24.44° C | 80% | 1014.3 hPa | - | - | - | - |
| 1777861650 | 25° C | 78% | 1014.1 hPa | - | - | - | - |
| 1777860750 | 25° C | 76% | 1013.8 hPa | - | - | - | - |
| 1777859850 | 24.44° C | 75% | 1013.8 hPa | - | - | - | - |
| 1777858949 | 25.56° C | 71% | 1013.9 hPa | - | - | - | - |
| 1777858049 | 25° C | 71% | 1013.5 hPa | - | - | - | - |
| 1777857149 | 25.56° C | 68% | 1013.5 hPa | - | - | - | - |
| 1777856249 | 26.11° C | 63% | 1013.4 hPa | - | - | - | - |
| 1777855349 | 26.11° C | 62% | 1013.2 hPa | - | - | - | - |
| 1777854449 | 27.22° C | 56% | 1013.1 hPa | - | - | - | - |
| 1777853549 | 27.22° C | 57% | 1013.2 hPa | - | - | - | - |
| 1777852649 | 27.78° C | 54% | 1013 hPa | - | - | - | - |
| 1777851749 | 27.78° C | 53% | 1013 hPa | - | - | - | - |
| 1777850849 | 28.33° C | 52% | 1013 hPa | - | - | - | - |
| 1777849949 | 28.33° C | 51% | 1013.3 hPa | - | - | - | - |
| 1777849049 | 28.89° C | 49% | 1013.2 hPa | - | - | - | - |
| 1777848149 | 29.44° C | 47% | 1013.3 hPa | - | - | - | - |
| 1777847248 | 28.89° C | 46% | 1013.6 hPa | - | - | - | - |
| 1777846348 | 30° C | 43% | 1013.7 hPa | - | - | - | - |
| 1777845448 | 29.44° C | 44% | 1014 hPa | - | - | - | - |
* Rain since midnight (hover to see other rain measurements)
** Current wind speed in m/s (hover to see current wind gust speed)